sensor_id;sensor_type;location;lat;lon;timestamp;temperature;humidity
52867;DHT22;38739;53.324;6.862;2023-04-06T00:01:37;3.20;99.90
52867;DHT22;38739;53.324;6.862;2023-04-06T00:04:03;3.20;99.90
52867;DHT22;38739;53.324;6.862;2023-04-06T00:06:29;3.20;99.90
52867;DHT22;38739;53.324;6.862;2023-04-06T00:08:55;3.10;99.90
52867;DHT22;38739;53.324;6.862;2023-04-06T00:11:22;3.10;99.90
52867;DHT22;38739;53.324;6.862;2023-04-06T00:13:47;3.10;99.90
52867;DHT22;38739;53.324;6.862;2023-04-06T00:16:13;3.00;99.90
52867;DHT22;38739;53.324;6.862;2023-04-06T00:18:39;3.00;99.90
52867;DHT22;38739;53.324;6.862;2023-04-06T00:21:05;3.00;99.90
52867;DHT22;38739;53.324;6.862;2023-04-06T00:23:31;2.90;99.90
52867;DHT22;38739;53.324;6.862;2023-04-06T00:25:57;2.90;99.90
52867;DHT22;38739;53.324;6.862;2023-04-06T00:28:23;2.90;99.90
52867;DHT22;38739;53.324;6.862;2023-04-06T00:30:52;2.80;99.90
52867;DHT22;38739;53.324;6.862;2023-04-06T00:33:22;2.80;99.90
52867;DHT22;38739;53.324;6.862;2023-04-06T00:35:48;2.80;99.90
52867;DHT22;38739;53.324;6.862;2023-04-06T00:38:15;2.70;99.90
52867;DHT22;38739;53.324;6.862;2023-04-06T00:40:42;2.70;99.90
52867;DHT22;38739;53.324;6.862;2023-04-06T00:43:10;2.70;99.90
52867;DHT22;38739;53.324;6.862;2023-04-06T00:45:38;2.70;99.90
52867;DHT22;38739;53.324;6.862;2023-04-06T00:48:04;2.70;99.90
52867;DHT22;38739;53.324;6.862;2023-04-06T00:50:30;2.60;99.90
52867;DHT22;38739;53.324;6.862;2023-04-06T00:52:56;2.60;99.90
52867;DHT22;38739;53.324;6.862;2023-04-06T00:55:22;2.60;99.90
52867;DHT22;38739;53.324;6.862;2023-04-06T00:57:48;2.50;99.90
52867;DHT22;38739;53.324;6.862;2023-04-06T01:00:16;2.50;99.90
52867;DHT22;38739;53.324;6.862;2023-04-06T01:02:42;2.50;99.90
52867;DHT22;38739;53.324;6.862;2023-04-06T01:05:08;2.50;99.90
52867;DHT22;38739;53.324;6.862;2023-04-06T01:07:34;2.50;99.90
52867;DHT22;38739;53.324;6.862;2023-04-06T01:09:59;2.50;99.90
52867;DHT22;38739;53.324;6.862;2023-04-06T01:12:25;2.50;99.90
52867;DHT22;38739;53.324;6.862;2023-04-06T01:14:51;2.50;99.90
52867;DHT22;38739;53.324;6.862;2023-04-06T01:17:17;2.50;99.90
52867;DHT22;38739;53.324;6.862;2023-04-06T01:19:42;2.40;99.90
52867;DHT22;38739;53.324;6.862;2023-04-06T01:22:15;2.40;99.90
52867;DHT22;38739;53.324;6.862;2023-04-06T01:24:41;2.40;99.90
52867;DHT22;38739;53.324;6.862;2023-04-06T01:27:07;2.40;99.90
52867;DHT22;38739;53.324;6.862;2023-04-06T01:29:32;2.30;99.90
52867;DHT22;38739;53.324;6.862;2023-04-06T01:31:58;2.30;99.90
52867;DHT22;38739;53.324;6.862;2023-04-06T01:34:24;2.30;99.90
52867;DHT22;38739;53.324;6.862;2023-04-06T01:36:50;2.20;99.90
52867;DHT22;38739;53.324;6.862;2023-04-06T01:39:15;2.20;99.90
52867;DHT22;38739;53.324;6.862;2023-04-06T01:41:41;2.20;99.90
52867;DHT22;38739;53.324;6.862;2023-04-06T01:44:07;2.10;99.90
52867;DHT22;38739;53.324;6.862;2023-04-06T01:46:33;2.10;99.90
52867;DHT22;38739;53.324;6.862;2023-04-06T01:48:58;2.10;99.90
52867;DHT22;38739;53.324;6.862;2023-04-06T01:51:24;2.10;99.90
52867;DHT22;38739;53.324;6.862;2023-04-06T01:53:51;2.10;99.90
52867;DHT22;38739;53.324;6.862;2023-04-06T01:56:17;2.00;99.90
52867;DHT22;38739;53.324;6.862;2023-04-06T01:58:42;2.00;99.90
52867;DHT22;38739;53.324;6.862;2023-04-06T02:01:08;2.00;99.90
52867;DHT22;38739;53.324;6.862;2023-04-06T02:03:34;2.00;99.90
52867;DHT22;38739;53.324;6.862;2023-04-06T02:06:00;2.00;99.90
52867;DHT22;38739;53.324;6.862;2023-04-06T02:08:26;2.00;99.90
52867;DHT22;38739;53.324;6.862;2023-04-06T02:10:52;2.00;99.90
52867;DHT22;38739;53.324;6.862;2023-04-06T02:13:17;1.90;99.90
52867;DHT22;38739;53.324;6.862;2023-04-06T02:15:43;1.90;99.90
52867;DHT22;38739;53.324;6.862;2023-04-06T02:18:09;1.90;99.90
52867;DHT22;38739;53.324;6.862;2023-04-06T02:20:35;1.90;99.90
52867;DHT22;38739;53.324;6.862;2023-04-06T02:23:01;1.80;99.90
52867;DHT22;38739;53.324;6.862;2023-04-06T02:25:27;1.80;99.90
52867;DHT22;38739;53.324;6.862;2023-04-06T02:27:53;1.80;99.90
52867;DHT22;38739;53.324;6.862;2023-04-06T02:30:19;1.80;99.90
52867;DHT22;38739;53.324;6.862;2023-04-06T02:32:46;1.80;99.90
52867;DHT22;38739;53.324;6.862;2023-04-06T02:35:12;1.80;99.90
52867;DHT22;38739;53.324;6.862;2023-04-06T02:37:37;1.80;99.90
52867;DHT22;38739;53.324;6.862;2023-04-06T02:40:04;1.80;99.90
52867;DHT22;38739;53.324;6.862;2023-04-06T02:42:29;1.80;99.90
52867;DHT22;38739;53.324;6.862;2023-04-06T02:44:55;1.80;99.90
52867;DHT22;38739;53.324;6.862;2023-04-06T02:47:21;1.80;99.90
52867;DHT22;38739;53.324;6.862;2023-04-06T02:49:47;1.80;99.90
52867;DHT22;38739;53.324;6.862;2023-04-06T02:52:12;1.80;99.90
52867;DHT22;38739;53.324;6.862;2023-04-06T02:54:38;1.80;99.90
52867;DHT22;38739;53.324;6.862;2023-04-06T02:57:04;1.80;99.90
52867;DHT22;38739;53.324;6.862;2023-04-06T02:59:29;1.80;99.90
52867;DHT22;38739;53.324;6.862;2023-04-06T03:01:55;1.80;99.90
52867;DHT22;38739;53.324;6.862;2023-04-06T03:04:21;1.80;99.90
52867;DHT22;38739;53.324;6.862;2023-04-06T03:06:51;1.80;99.90
52867;DHT22;38739;53.324;6.862;2023-04-06T03:09:16;1.80;99.90
52867;DHT22;38739;53.324;6.862;2023-04-06T03:11:42;1.80;99.90
52867;DHT22;38739;53.324;6.862;2023-04-06T03:14:08;1.80;99.90
52867;DHT22;38739;53.324;6.862;2023-04-06T03:16:33;1.80;99.90
52867;DHT22;38739;53.324;6.862;2023-04-06T03:18:59;1.80;99.90
52867;DHT22;38739;53.324;6.862;2023-04-06T03:21:25;1.80;99.90
52867;DHT22;38739;53.324;6.862;2023-04-06T03:23:51;1.70;99.90
52867;DHT22;38739;53.324;6.862;2023-04-06T03:26:17;1.70;99.90
52867;DHT22;38739;53.324;6.862;2023-04-06T03:28:45;1.70;99.90
52867;DHT22;38739;53.324;6.862;2023-04-06T03:31:11;1.70;99.90
52867;DHT22;38739;53.324;6.862;2023-04-06T03:33:37;1.60;99.90
52867;DHT22;38739;53.324;6.862;2023-04-06T03:36:03;1.70;99.90
52867;DHT22;38739;53.324;6.862;2023-04-06T03:38:29;1.60;99.90
52867;DHT22;38739;53.324;6.862;2023-04-06T03:40:55;1.60;99.90
52867;DHT22;38739;53.324;6.862;2023-04-06T03:43:20;1.60;99.90
52867;DHT22;38739;53.324;6.862;2023-04-06T03:45:46;1.60;99.90
52867;DHT22;38739;53.324;6.862;2023-04-06T03:48:12;1.50;99.90
52867;DHT22;38739;53.324;6.862;2023-04-06T03:50:37;1.60;99.90
52867;DHT22;38739;53.324;6.862;2023-04-06T03:53:03;1.60;99.90
52867;DHT22;38739;53.324;6.862;2023-04-06T03:55:29;1.50;99.90
52867;DHT22;38739;53.324;6.862;2023-04-06T03:57:55;1.60;99.90
52867;DHT22;38739;53.324;6.862;2023-04-06T04:00:21;1.60;99.90
52867;DHT22;38739;53.324;6.862;2023-04-06T04:02:47;1.50;99.90
52867;DHT22;38739;53.324;6.862;2023-04-06T04:05:12;1.50;99.90
52867;DHT22;38739;53.324;6.862;2023-04-06T04:07:38;1.50;99.90
52867;DHT22;38739;53.324;6.862;2023-04-06T04:10:04;1.50;99.90
52867;DHT22;38739;53.324;6.862;2023-04-06T04:12:30;1.50;99.90
52867;DHT22;38739;53.324;6.862;2023-04-06T04:14:56;1.50;99.90
52867;DHT22;38739;53.324;6.862;2023-04-06T04:17:21;1.50;99.90
52867;DHT22;38739;53.324;6.862;2023-04-06T04:19:47;1.50;99.90
52867;DHT22;38739;53.324;6.862;2023-04-06T04:22:13;1.50;99.90
52867;DHT22;38739;53.324;6.862;2023-04-06T04:24:38;1.40;99.90
52867;DHT22;38739;53.324;6.862;2023-04-06T04:27:04;1.50;99.90
52867;DHT22;38739;53.324;6.862;2023-04-06T04:29:30;1.40;99.90
52867;DHT22;38739;53.324;6.862;2023-04-06T04:31:56;1.40;99.90
52867;DHT22;38739;53.324;6.862;2023-04-06T04:34:22;1.40;99.90
52867;DHT22;38739;53.324;6.862;2023-04-06T04:36:53;1.40;99.90
52867;DHT22;38739;53.324;6.862;2023-04-06T04:39:19;1.40;99.90
52867;DHT22;38739;53.324;6.862;2023-04-06T04:41:45;1.40;99.90
52867;DHT22;38739;53.324;6.862;2023-04-06T04:44:11;1.40;99.90
52867;DHT22;38739;53.324;6.862;2023-04-06T04:46:36;1.30;99.90
52867;DHT22;38739;53.324;6.862;2023-04-06T04:49:02;1.30;99.90
52867;DHT22;38739;53.324;6.862;2023-04-06T04:51:28;1.30;99.90
52867;DHT22;38739;53.324;6.862;2023-04-06T04:53:54;1.30;99.90
52867;DHT22;38739;53.324;6.862;2023-04-06T04:56:19;1.20;99.90
52867;DHT22;38739;53.324;6.862;2023-04-06T04:58:45;1.20;99.90
52867;DHT22;38739;53.324;6.862;2023-04-06T05:01:11;1.20;99.90
52867;DHT22;38739;53.324;6.862;2023-04-06T05:03:37;1.20;99.90
52867;DHT22;38739;53.324;6.862;2023-04-06T05:06:04;1.20;99.90
52867;DHT22;38739;53.324;6.862;2023-04-06T05:08:30;1.20;99.90
52867;DHT22;38739;53.324;6.862;2023-04-06T05:10:56;1.20;99.90
52867;DHT22;38739;53.324;6.862;2023-04-06T05:13:22;1.20;99.90
52867;DHT22;38739;53.324;6.862;2023-04-06T05:15:48;1.10;99.90
52867;DHT22;38739;53.324;6.862;2023-04-06T05:18:14;1.10;99.90
52867;DHT22;38739;53.324;6.862;2023-04-06T05:20:40;1.20;99.90
52867;DHT22;38739;53.324;6.862;2023-04-06T05:23:06;1.10;99.90
52867;DHT22;38739;53.324;6.862;2023-04-06T05:25:32;1.10;99.90
52867;DHT22;38739;53.324;6.862;2023-04-06T05:27:58;1.10;99.90
52867;DHT22;38739;53.324;6.862;2023-04-06T05:30:24;1.10;99.90
52867;DHT22;38739;53.324;6.862;2023-04-06T05:32:50;1.20;99.90
52867;DHT22;38739;53.324;6.862;2023-04-06T05:35:16;1.10;99.90
52867;DHT22;38739;53.324;6.862;2023-04-06T05:37:43;1.20;99.90
52867;DHT22;38739;53.324;6.862;2023-04-06T05:40:08;1.20;99.90
52867;DHT22;38739;53.324;6.862;2023-04-06T05:42:42;1.20;99.90
52867;DHT22;38739;53.324;6.862;2023-04-06T05:45:09;1.20;99.90
52867;DHT22;38739;53.324;6.862;2023-04-06T05:47:36;1.30;99.90
52867;DHT22;38739;53.324;6.862;2023-04-06T05:50:03;1.30;99.90
52867;DHT22;38739;53.324;6.862;2023-04-06T05:52:29;1.30;99.90
52867;DHT22;38739;53.324;6.862;2023-04-06T05:54:54;1.30;99.90
52867;DHT22;38739;53.324;6.862;2023-04-06T05:57:20;1.30;99.90
52867;DHT22;38739;53.324;6.862;2023-04-06T05:59:46;1.30;99.90
52867;DHT22;38739;53.324;6.862;2023-04-06T06:02:12;1.40;99.90
52867;DHT22;38739;53.324;6.862;2023-04-06T06:04:37;1.40;99.90
52867;DHT22;38739;53.324;6.862;2023-04-06T06:07:03;1.50;99.90
52867;DHT22;38739;53.324;6.862;2023-04-06T06:09:29;1.50;99.90
52867;DHT22;38739;53.324;6.862;2023-04-06T06:11:55;1.60;99.90
52867;DHT22;38739;53.324;6.862;2023-04-06T06:14:21;1.60;99.90
52867;DHT22;38739;53.324;6.862;2023-04-06T06:16:47;1.70;99.90
52867;DHT22;38739;53.324;6.862;2023-04-06T06:19:13;1.80;99.90
52867;DHT22;38739;53.324;6.862;2023-04-06T06:21:39;1.90;99.90
52867;DHT22;38739;53.324;6.862;2023-04-06T06:24:05;2.00;99.90
52867;DHT22;38739;53.324;6.862;2023-04-06T06:26:31;2.10;99.90
52867;DHT22;38739;53.324;6.862;2023-04-06T06:28:57;2.20;99.90
52867;DHT22;38739;53.324;6.862;2023-04-06T06:31:22;2.20;99.90
52867;DHT22;38739;53.324;6.862;2023-04-06T06:33:51;2.30;99.90
52867;DHT22;38739;53.324;6.862;2023-04-06T06:36:17;2.50;99.90
52867;DHT22;38739;53.324;6.862;2023-04-06T06:38:44;2.60;99.90
52867;DHT22;38739;53.324;6.862;2023-04-06T06:41:10;2.70;99.90
52867;DHT22;38739;53.324;6.862;2023-04-06T06:43:36;2.80;99.90
52867;DHT22;38739;53.324;6.862;2023-04-06T06:46:03;2.90;99.90
52867;DHT22;38739;53.324;6.862;2023-04-06T06:48:28;3.00;99.90
52867;DHT22;38739;53.324;6.862;2023-04-06T06:50:54;3.10;99.90
52867;DHT22;38739;53.324;6.862;2023-04-06T06:53:20;3.30;99.90
52867;DHT22;38739;53.324;6.862;2023-04-06T06:55:46;3.30;99.90
52867;DHT22;38739;53.324;6.862;2023-04-06T06:58:14;3.40;99.90
52867;DHT22;38739;53.324;6.862;2023-04-06T07:00:40;3.50;99.90
52867;DHT22;38739;53.324;6.862;2023-04-06T07:03:05;3.60;99.90
52867;DHT22;38739;53.324;6.862;2023-04-06T07:05:31;3.70;99.90
52867;DHT22;38739;53.324;6.862;2023-04-06T07:07:57;3.80;99.90
52867;DHT22;38739;53.324;6.862;2023-04-06T07:10:23;3.90;99.90
52867;DHT22;38739;53.324;6.862;2023-04-06T07:12:49;4.00;99.90
52867;DHT22;38739;53.324;6.862;2023-04-06T07:15:14;4.20;99.90
52867;DHT22;38739;53.324;6.862;2023-04-06T07:17:40;4.30;99.90
52867;DHT22;38739;53.324;6.862;2023-04-06T07:20:15;4.50;99.90
52867;DHT22;38739;53.324;6.862;2023-04-06T07:22:43;4.60;99.90
52867;DHT22;38739;53.324;6.862;2023-04-06T07:25:10;4.80;99.90
52867;DHT22;38739;53.324;6.862;2023-04-06T07:27:36;5.00;99.90
52867;DHT22;38739;53.324;6.862;2023-04-06T07:30:02;5.10;99.90
52867;DHT22;38739;53.324;6.862;2023-04-06T07:32:28;5.30;99.90
52867;DHT22;38739;53.324;6.862;2023-04-06T07:34:53;5.50;99.90
52867;DHT22;38739;53.324;6.862;2023-04-06T07:37:19;5.60;99.90
52867;DHT22;38739;53.324;6.862;2023-04-06T07:39:45;5.70;99.90
52867;DHT22;38739;53.324;6.862;2023-04-06T07:42:11;5.90;99.90
52867;DHT22;38739;53.324;6.862;2023-04-06T07:44:37;6.00;99.90
52867;DHT22;38739;53.324;6.862;2023-04-06T07:47:03;6.20;99.90
52867;DHT22;38739;53.324;6.862;2023-04-06T07:49:28;6.40;99.90
52867;DHT22;38739;53.324;6.862;2023-04-06T07:51:55;6.50;99.90
52867;DHT22;38739;53.324;6.862;2023-04-06T07:54:21;6.70;99.90
52867;DHT22;38739;53.324;6.862;2023-04-06T07:56:47;6.80;99.90
52867;DHT22;38739;53.324;6.862;2023-04-06T07:59:13;6.80;99.90
52867;DHT22;38739;53.324;6.862;2023-04-06T08:01:39;7.00;99.90
52867;DHT22;38739;53.324;6.862;2023-04-06T08:04:05;7.20;99.90
52867;DHT22;38739;53.324;6.862;2023-04-06T08:06:31;7.40;99.90
52867;DHT22;38739;53.324;6.862;2023-04-06T08:08:56;7.60;99.90
52867;DHT22;38739;53.324;6.862;2023-04-06T08:11:22;7.80;99.90
52867;DHT22;38739;53.324;6.862;2023-04-06T08:13:48;7.80;99.90
52867;DHT22;38739;53.324;6.862;2023-04-06T08:16:13;8.00;99.90
52867;DHT22;38739;53.324;6.862;2023-04-06T08:18:40;8.10;99.90
52867;DHT22;38739;53.324;6.862;2023-04-06T08:21:06;8.30;99.90
52867;DHT22;38739;53.324;6.862;2023-04-06T08:23:31;8.50;99.90
52867;DHT22;38739;53.324;6.862;2023-04-06T08:25:57;8.70;99.90
52867;DHT22;38739;53.324;6.862;2023-04-06T08:28:23;8.90;99.90
52867;DHT22;38739;53.324;6.862;2023-04-06T08:30:49;9.20;99.90
52867;DHT22;38739;53.324;6.862;2023-04-06T08:33:14;9.30;99.90
52867;DHT22;38739;53.324;6.862;2023-04-06T08:35:41;9.40;98.10
52867;DHT22;38739;53.324;6.862;2023-04-06T08:38:06;9.40;97.30
52867;DHT22;38739;53.324;6.862;2023-04-06T08:40:39;9.60;97.90
52867;DHT22;38739;53.324;6.862;2023-04-06T08:43:09;9.90;97.30
52867;DHT22;38739;53.324;6.862;2023-04-06T08:45:38;10.10;95.80
52867;DHT22;38739;53.324;6.862;2023-04-06T08:48:05;10.40;95.80
52867;DHT22;38739;53.324;6.862;2023-04-06T08:50:32;10.50;94.80
52867;DHT22;38739;53.324;6.862;2023-04-06T08:52:59;10.60;93.90
52867;DHT22;38739;53.324;6.862;2023-04-06T08:55:25;10.80;92.60
52867;DHT22;38739;53.324;6.862;2023-04-06T08:57:52;10.90;92.20
52867;DHT22;38739;53.324;6.862;2023-04-06T09:00:20;11.10;91.30
52867;DHT22;38739;53.324;6.862;2023-04-06T09:02:47;11.30;89.60
52867;DHT22;38739;53.324;6.862;2023-04-06T09:05:15;11.40;88.40
52867;DHT22;38739;53.324;6.862;2023-04-06T09:07:41;11.60;88.10
52867;DHT22;38739;53.324;6.862;2023-04-06T09:10:07;11.90;88.40
52867;DHT22;38739;53.324;6.862;2023-04-06T09:12:34;12.00;86.80
52867;DHT22;38739;53.324;6.862;2023-04-06T09:15:01;12.20;85.50
52867;DHT22;38739;53.324;6.862;2023-04-06T09:17:29;12.30;83.80
52867;DHT22;38739;53.324;6.862;2023-04-06T09:19:56;12.50;82.70
52867;DHT22;38739;53.324;6.862;2023-04-06T09:22:22;12.70;79.70
52867;DHT22;38739;53.324;6.862;2023-04-06T09:24:50;12.90;77.10
52867;DHT22;38739;53.324;6.862;2023-04-06T09:27:16;13.10;75.10
52867;DHT22;38739;53.324;6.862;2023-04-06T09:29:42;13.30;74.60
52867;DHT22;38739;53.324;6.862;2023-04-06T09:32:09;13.60;74.40
52867;DHT22;38739;53.324;6.862;2023-04-06T09:34:42;13.70;70.50
52867;DHT22;38739;53.324;6.862;2023-04-06T09:37:18;13.80;72.40
52867;DHT22;38739;53.324;6.862;2023-04-06T09:39:45;14.10;70.50
52867;DHT22;38739;53.324;6.862;2023-04-06T09:42:31;14.30;71.00
52867;DHT22;38739;53.324;6.862;2023-04-06T09:44:57;14.50;67.10
52867;DHT22;38739;53.324;6.862;2023-04-06T09:47:23;14.30;66.80
52867;DHT22;38739;53.324;6.862;2023-04-06T09:49:50;14.20;65.30
52867;DHT22;38739;53.324;6.862;2023-04-06T09:52:19;14.30;66.80
52867;DHT22;38739;53.324;6.862;2023-04-06T09:54:48;14.60;66.50
52867;DHT22;38739;53.324;6.862;2023-04-06T10:05:02;15.20;63.00
52867;DHT22;38739;53.324;6.862;2023-04-06T10:07:28;15.20;63.20
52867;DHT22;38739;53.324;6.862;2023-04-06T10:09:55;15.40;64.60
52867;DHT22;38739;53.324;6.862;2023-04-06T10:12:21;15.30;65.10
52867;DHT22;38739;53.324;6.862;2023-04-06T10:14:47;15.70;64.80
52867;DHT22;38739;53.324;6.862;2023-04-06T10:17:13;15.70;64.20
52867;DHT22;38739;53.324;6.862;2023-04-06T10:19:59;15.40;62.70
52867;DHT22;38739;53.324;6.862;2023-04-06T10:22:36;15.10;60.80
52867;DHT22;38739;53.324;6.862;2023-04-06T10:25:04;14.70;62.70
52867;DHT22;38739;53.324;6.862;2023-04-06T10:27:30;14.20;61.80
52867;DHT22;38739;53.324;6.862;2023-04-06T10:30:05;13.90;63.60
52867;DHT22;38739;53.324;6.862;2023-04-06T10:32:36;13.70;63.80
52867;DHT22;38739;53.324;6.862;2023-04-06T10:35:09;13.60;65.00
52867;DHT22;38739;53.324;6.862;2023-04-06T10:37:51;13.60;65.00
52867;DHT22;38739;53.324;6.862;2023-04-06T10:40:24;13.60;65.20
52867;DHT22;38739;53.324;6.862;2023-04-06T10:42:52;13.50;64.80
52867;DHT22;38739;53.324;6.862;2023-04-06T10:45:23;13.50;65.10
52867;DHT22;38739;53.324;6.862;2023-04-06T10:47:52;13.60;66.10
52867;DHT22;38739;53.324;6.862;2023-04-06T10:50:17;13.40;64.00
52867;DHT22;38739;53.324;6.862;2023-04-06T10:52:45;13.50;65.60
52867;DHT22;38739;53.324;6.862;2023-04-06T10:55:13;13.20;64.70
52867;DHT22;38739;53.324;6.862;2023-04-06T10:57:40;13.10;64.90
52867;DHT22;38739;53.324;6.862;2023-04-06T11:00:08;13.30;65.20
52867;DHT22;38739;53.324;6.862;2023-04-06T11:02:35;13.40;65.70
52867;DHT22;38739;53.324;6.862;2023-04-06T11:05:03;13.50;65.90
52867;DHT22;38739;53.324;6.862;2023-04-06T11:07:29;13.40;64.90
52867;DHT22;38739;53.324;6.862;2023-04-06T11:09:56;13.60;65.20
52867;DHT22;38739;53.324;6.862;2023-04-06T11:12:26;13.50;63.60
52867;DHT22;38739;53.324;6.862;2023-04-06T11:15:00;13.60;65.50
52867;DHT22;38739;53.324;6.862;2023-04-06T11:17:36;13.60;64.90
52867;DHT22;38739;53.324;6.862;2023-04-06T11:20:03;13.70;66.00
52867;DHT22;38739;53.324;6.862;2023-04-06T11:22:30;13.60;65.20
52867;DHT22;38739;53.324;6.862;2023-04-06T11:25:08;13.60;65.40
52867;DHT22;38739;53.324;6.862;2023-04-06T11:27:34;13.60;65.50
52867;DHT22;38739;53.324;6.862;2023-04-06T11:30:01;13.60;65.70
52867;DHT22;38739;53.324;6.862;2023-04-06T11:32:27;13.50;64.80
52867;DHT22;38739;53.324;6.862;2023-04-06T11:34:53;13.60;66.00
52867;DHT22;38739;53.324;6.862;2023-04-06T11:37:26;13.60;65.80
52867;DHT22;38739;53.324;6.862;2023-04-06T11:39:54;13.90;66.20
52867;DHT22;38739;53.324;6.862;2023-04-06T11:42:22;13.90;65.10
52867;DHT22;38739;53.324;6.862;2023-04-06T11:44:54;13.80;63.70
52867;DHT22;38739;53.324;6.862;2023-04-06T11:47:32;14.00;64.60
52867;DHT22;38739;53.324;6.862;2023-04-06T11:50:08;14.40;63.90
52867;DHT22;38739;53.324;6.862;2023-04-06T11:52:34;15.00;63.50
52867;DHT22;38739;53.324;6.862;2023-04-06T11:55:11;15.20;62.60
52867;DHT22;38739;53.324;6.862;2023-04-06T11:57:38;15.00;61.20
52867;DHT22;38739;53.324;6.862;2023-04-06T12:00:04;15.20;62.50
52867;DHT22;38739;53.324;6.862;2023-04-06T12:02:30;15.30;63.90
52867;DHT22;38739;53.324;6.862;2023-04-06T12:04:57;15.40;62.40
52867;DHT22;38739;53.324;6.862;2023-04-06T12:07:23;15.40;63.00
52867;DHT22;38739;53.324;6.862;2023-04-06T12:09:49;15.40;62.30
52867;DHT22;38739;53.324;6.862;2023-04-06T12:12:14;15.60;62.80
52867;DHT22;38739;53.324;6.862;2023-04-06T12:14:40;15.40;61.50
52867;DHT22;38739;53.324;6.862;2023-04-06T12:17:06;15.60;62.50
52867;DHT22;38739;53.324;6.862;2023-04-06T12:19:32;16.30;62.80
52867;DHT22;38739;53.324;6.862;2023-04-06T12:21:58;16.60;60.20
52867;DHT22;38739;53.324;6.862;2023-04-06T12:24:23;16.60;60.70
52867;DHT22;38739;53.324;6.862;2023-04-06T12:26:49;16.60;59.70
52867;DHT22;38739;53.324;6.862;2023-04-06T12:29:15;16.80;60.00
52867;DHT22;38739;53.324;6.862;2023-04-06T12:31:41;16.90;59.70
52867;DHT22;38739;53.324;6.862;2023-04-06T12:34:08;17.10;58.20
52867;DHT22;38739;53.324;6.862;2023-04-06T12:36:34;17.20;58.80
52867;DHT22;38739;53.324;6.862;2023-04-06T12:39:00;17.50;59.00
52867;DHT22;38739;53.324;6.862;2023-04-06T12:41:27;17.40;57.80
52867;DHT22;38739;53.324;6.862;2023-04-06T12:43:53;17.50;58.00
52867;DHT22;38739;53.324;6.862;2023-04-06T12:46:18;17.50;58.60
52867;DHT22;38739;53.324;6.862;2023-04-06T12:48:45;17.50;57.00
52867;DHT22;38739;53.324;6.862;2023-04-06T12:51:11;17.40;57.00
52867;DHT22;38739;53.324;6.862;2023-04-06T12:53:37;17.40;57.70
52867;DHT22;38739;53.324;6.862;2023-04-06T12:56:14;17.60;58.40
52867;DHT22;38739;53.324;6.862;2023-04-06T12:58:41;17.00;56.60
52867;DHT22;38739;53.324;6.862;2023-04-06T13:01:07;16.70;58.40
52867;DHT22;38739;53.324;6.862;2023-04-06T13:03:33;16.50;58.90
52867;DHT22;38739;53.324;6.862;2023-04-06T13:06:00;16.40;59.30
52867;DHT22;38739;53.324;6.862;2023-04-06T13:08:26;16.40;60.10
52867;DHT22;38739;53.324;6.862;2023-04-06T13:10:53;16.40;59.90
52867;DHT22;38739;53.324;6.862;2023-04-06T13:13:29;16.10;59.70
52867;DHT22;38739;53.324;6.862;2023-04-06T13:16:00;16.00;60.10
52867;DHT22;38739;53.324;6.862;2023-04-06T13:18:26;16.10;60.60
52867;DHT22;38739;53.324;6.862;2023-04-06T13:20:52;15.90;60.60
52867;DHT22;38739;53.324;6.862;2023-04-06T13:23:18;16.10;62.00
52867;DHT22;38739;53.324;6.862;2023-04-06T13:25:44;16.40;61.70
52867;DHT22;38739;53.324;6.862;2023-04-06T13:28:10;16.40;61.00
52867;DHT22;38739;53.324;6.862;2023-04-06T13:30:36;16.30;59.60
52867;DHT22;38739;53.324;6.862;2023-04-06T13:33:02;16.20;59.30
52867;DHT22;38739;53.324;6.862;2023-04-06T13:35:28;16.00;59.60
52867;DHT22;38739;53.324;6.862;2023-04-06T13:37:53;15.90;60.60
52867;DHT22;38739;53.324;6.862;2023-04-06T13:40:20;15.80;60.50
52867;DHT22;38739;53.324;6.862;2023-04-06T13:42:47;15.80;61.90
52867;DHT22;38739;53.324;6.862;2023-04-06T13:45:13;15.90;62.20
52867;DHT22;38739;53.324;6.862;2023-04-06T13:47:38;15.60;60.70
52867;DHT22;38739;53.324;6.862;2023-04-06T13:50:05;15.70;61.60
52867;DHT22;38739;53.324;6.862;2023-04-06T13:52:31;15.70;61.80
52867;DHT22;38739;53.324;6.862;2023-04-06T13:54:57;15.70;61.90
52867;DHT22;38739;53.324;6.862;2023-04-06T13:57:23;15.50;61.30
52867;DHT22;38739;53.324;6.862;2023-04-06T13:59:48;15.40;61.50
52867;DHT22;38739;53.324;6.862;2023-04-06T14:02:16;15.40;61.60
52867;DHT22;38739;53.324;6.862;2023-04-06T14:04:42;15.30;61.30
52867;DHT22;38739;53.324;6.862;2023-04-06T14:07:07;15.20;61.90
52867;DHT22;38739;53.324;6.862;2023-04-06T14:09:34;14.90;61.70
52867;DHT22;38739;53.324;6.862;2023-04-06T14:12:00;14.90;62.00
52867;DHT22;38739;53.324;6.862;2023-04-06T14:14:26;14.90;62.30
52867;DHT22;38739;53.324;6.862;2023-04-06T14:16:51;14.70;62.40
52867;DHT22;38739;53.324;6.862;2023-04-06T14:19:17;14.50;62.90
52867;DHT22;38739;53.324;6.862;2023-04-06T14:21:47;14.50;63.00
52867;DHT22;38739;53.324;6.862;2023-04-06T14:24:14;14.50;63.30
52867;DHT22;38739;53.324;6.862;2023-04-06T14:26:40;14.40;64.30
52867;DHT22;38739;53.324;6.862;2023-04-06T14:29:09;14.30;63.30
52867;DHT22;38739;53.324;6.862;2023-04-06T14:31:36;14.30;64.30
52867;DHT22;38739;53.324;6.862;2023-04-06T14:34:03;14.20;64.40
52867;DHT22;38739;53.324;6.862;2023-04-06T14:36:32;14.10;64.50
52867;DHT22;38739;53.324;6.862;2023-04-06T14:39:06;14.00;65.00
52867;DHT22;38739;53.324;6.862;2023-04-06T14:41:33;13.90;64.70
52867;DHT22;38739;53.324;6.862;2023-04-06T14:43:59;13.80;65.00
52867;DHT22;38739;53.324;6.862;2023-04-06T14:46:25;13.70;65.00
52867;DHT22;38739;53.324;6.862;2023-04-06T14:48:54;13.60;65.50
52867;DHT22;38739;53.324;6.862;2023-04-06T14:51:20;13.60;65.70
52867;DHT22;38739;53.324;6.862;2023-04-06T14:53:46;13.70;66.20
52867;DHT22;38739;53.324;6.862;2023-04-06T14:56:12;13.60;66.00
52867;DHT22;38739;53.324;6.862;2023-04-06T14:58:38;13.50;65.80
52867;DHT22;38739;53.324;6.862;2023-04-06T15:01:03;13.50;66.10
52867;DHT22;38739;53.324;6.862;2023-04-06T15:03:29;13.50;66.10
52867;DHT22;38739;53.324;6.862;2023-04-06T15:05:56;13.50;66.20
52867;DHT22;38739;53.324;6.862;2023-04-06T15:08:22;13.30;65.00
52867;DHT22;38739;53.324;6.862;2023-04-06T15:10:51;13.40;65.90
52867;DHT22;38739;53.324;6.862;2023-04-06T15:13:17;13.40;67.30
52867;DHT22;38739;53.324;6.862;2023-04-06T15:15:43;13.40;66.40
52867;DHT22;38739;53.324;6.862;2023-04-06T15:18:10;13.30;66.80
52867;DHT22;38739;53.324;6.862;2023-04-06T15:20:36;13.40;67.50
52867;DHT22;38739;53.324;6.862;2023-04-06T15:23:02;13.30;66.60
52867;DHT22;38739;53.324;6.862;2023-04-06T15:25:29;13.20;66.60
52867;DHT22;38739;53.324;6.862;2023-04-06T15:27:55;13.10;67.20
52867;DHT22;38739;53.324;6.862;2023-04-06T15:30:21;13.10;68.00
52867;DHT22;38739;53.324;6.862;2023-04-06T15:32:56;13.10;68.50
52867;DHT22;38739;53.324;6.862;2023-04-06T15:35:23;13.10;69.30
52867;DHT22;38739;53.324;6.862;2023-04-06T15:37:48;12.90;69.30
52867;DHT22;38739;53.324;6.862;2023-04-06T15:40:14;12.90;69.90
52867;DHT22;38739;53.324;6.862;2023-04-06T15:42:41;12.80;70.80
52867;DHT22;38739;53.324;6.862;2023-04-06T15:45:09;12.80;71.60